Time;durP1;ratioP1;P1;durP2;ratioP2;P2;SDS_P1;SDS_P2;PMS_P1;PMS_P2;Temp;Humidity;BMP_temperature;BMP_pressure;BME280_temperature;BME280_humidity;BME280_pressure;Samples;Min_cycle;Max_cycle;Signal;HPM_P1;HPM_P2
2021/10/10 00:04:17;;;;;;;0.20;0.20;;;17.50;99.90;;;;;;20607766;28;20290;-69
2021/10/10 00:14:22;;;;;;;0.53;0.40;;;17.40;99.90;;;;;;20613046;28;20227;-68
2021/10/10 00:24:27;;;;;;;1.13;0.77;;;17.30;99.90;;;;;;20611773;28;20192;-69
2021/10/10 00:34:31;;;;;;;0.57;0.27;;;17.30;99.90;;;;;;20645202;28;20226;-68
2021/10/10 00:44:37;;;;;;;0.30;0.13;;;17.30;99.90;;;;;;20653541;28;20230;-69
2021/10/10 00:54:41;;;;;;;0.43;0.43;;;17.40;99.90;;;;;;20654562;28;20236;-68
2021/10/10 01:04:48;;;;;;;0.93;0.47;;;17.30;99.90;;;;;;20653135;28;20788;-68
2021/10/10 01:14:53;;;;;;;0.20;0.10;;;17.30;99.90;;;;;;20667187;28;20634;-70
2021/10/10 01:24:58;;;;;;;0.20;0.20;;;17.40;99.90;;;;;;20749838;28;20277;-70
2021/10/10 01:35:02;;;;;;;0.30;0.20;;;17.40;99.90;;;;;;20618121;28;20246;-68
2021/10/10 01:45:15;;;;;;;0.73;0.50;;;17.30;99.90;;;;;;20606038;28;20290;-69
2021/10/10 01:55:19;;;;;;;0.20;0.00;;;17.40;99.90;;;;;;20666720;28;20627;-68
2021/10/10 02:05:25;;;;;;;0.43;0.40;;;17.30;99.90;;;;;;20667652;28;20223;-69
2021/10/10 02:15:29;;;;;;;0.20;0.20;;;17.20;99.90;;;;;;20684824;28;20318;-69
2021/10/10 02:25:35;;;;;;;0.20;0.10;;;17.20;99.90;;;;;;20746710;28;20198;-69
2021/10/10 02:35:38;;;;;;;0.20;0.10;;;17.10;99.90;;;;;;20743315;28;20227;-69
2021/10/10 02:45:43;;;;;;;0.30;0.10;;;16.90;99.90;;;;;;20745403;28;20294;-68
2021/10/10 02:55:47;;;;;;;0.30;0.27;;;16.70;99.90;;;;;;20742788;28;20322;-68
2021/10/10 03:05:53;;;;;;;0.23;0.20;;;16.70;99.90;;;;;;20649680;28;20731;-69
2021/10/10 03:15:57;;;;;;;0.20;0.10;;;16.60;99.90;;;;;;20625122;28;20224;-68
2021/10/10 03:26:02;;;;;;;0.20;0.00;;;16.50;99.90;;;;;;20742551;28;20227;-68
2021/10/10 03:36:07;;;;;;;0.87;0.30;;;16.40;99.90;;;;;;20740278;28;20229;-69
2021/10/10 03:46:12;;;;;;;0.20;0.10;;;16.70;99.90;;;;;;20615846;28;20662;-68
2021/10/10 03:56:15;;;;;;;0.20;0.10;;;16.70;99.90;;;;;;20577613;28;20314;-69
2021/10/10 04:06:20;;;;;;;0.20;0.10;;;16.70;99.90;;;;;;20578070;28;20331;-68
2021/10/10 04:16:26;;;;;;;0.33;0.33;;;16.60;99.90;;;;;;20626901;28;20226;-69
2021/10/10 04:26:31;;;;;;;4.33;0.50;;;16.70;99.90;;;;;;20736889;28;20201;-69
2021/10/10 04:36:35;;;;;;;0.60;0.50;;;16.80;99.90;;;;;;20736128;28;20715;-69
2021/10/10 04:46:40;;;;;;;0.60;0.47;;;16.80;99.90;;;;;;20736181;28;20211;-68
2021/10/10 04:56:44;;;;;;;0.20;0.00;;;16.90;99.90;;;;;;20733318;28;20325;-70
2021/10/10 05:06:50;;;;;;;0.70;0.63;;;17.00;99.90;;;;;;20734125;28;20230;-69
2021/10/10 05:16:53;;;;;;;0.20;0.20;;;17.00;99.90;;;;;;20704135;28;20627;-70
2021/10/10 05:26:59;;;;;;;0.20;0.20;;;17.10;99.90;;;;;;20652999;28;20223;-70
2021/10/10 05:37:03;;;;;;;0.30;0.20;;;17.20;99.90;;;;;;20651886;28;20579;-69
2021/10/10 05:47:08;;;;;;;0.20;0.10;;;17.20;99.90;;;;;;20634912;28;20291;-69
2021/10/10 05:57:14;;;;;;;0.20;0.20;;;17.20;99.90;;;;;;20651722;28;20580;-69
2021/10/10 06:07:19;;;;;;;0.20;0.10;;;17.20;99.90;;;;;;20660816;28;20299;-68
2021/10/10 06:17:23;;;;;;;0.20;0.10;;;17.20;99.90;;;;;;20697431;28;20321;-70
2021/10/10 06:27:29;;;;;;;0.20;0.20;;;17.20;99.90;;;;;;20745316;28;20664;-69
2021/10/10 06:37:32;;;;;;;0.40;0.40;;;17.20;99.90;;;;;;20744558;28;20215;-69
2021/10/10 06:47:37;;;;;;;0.87;0.87;;;17.40;99.90;;;;;;20744437;28;20195;-65
2021/10/10 06:57:41;;;;;;;0.20;0.10;;;17.40;99.90;;;;;;20743597;28;20626;-68
2021/10/10 07:07:46;;;;;;;0.20;0.10;;;17.50;99.90;;;;;;20679701;28;20223;-70
2021/10/10 07:17:58;;;;;;;0.33;0.30;;;17.70;99.90;;;;;;20697939;28;20321;-69
2021/10/10 07:28:04;;;;;;;0.30;0.30;;;17.90;99.90;;;;;;20740530;28;20208;-70
2021/10/10 07:38:09;;;;;;;0.20;0.10;;;18.10;99.90;;;;;;20738938;28;20245;-69
2021/10/10 07:48:14;;;;;;;0.30;0.20;;;18.40;99.90;;;;;;20738177;28;20202;-69
2021/10/10 07:58:18;;;;;;;0.20;0.20;;;18.60;99.90;;;;;;20737493;28;20227;-68
2021/10/10 08:08:23;;;;;;;1.30;0.83;;;18.70;99.90;;;;;;20680434;28;20230;-69
2021/10/10 08:18:27;;;;;;;0.20;0.03;;;19.00;99.90;;;;;;20680016;28;20248;-68
2021/10/10 08:28:32;;;;;;;2.30;1.10;;;19.10;99.90;;;;;;20611427;28;20741;-69
2021/10/10 08:38:36;;;;;;;0.20;0.20;;;19.50;99.90;;;;;;20612249;28;20246;-69
2021/10/10 08:48:41;;;;;;;1.37;1.23;;;19.60;99.90;;;;;;20610395;28;20557;-68
2021/10/10 08:58:46;;;;;;;1.03;0.97;;;19.80;99.90;;;;;;20609916;28;20227;-69
2021/10/10 09:08:53;;;;;;;0.90;0.40;;;20.10;99.90;;;;;;20581733;28;20240;-69
2021/10/10 09:18:56;;;;;;;0.20;0.17;;;20.20;99.90;;;;;;20583987;28;20800;-69
2021/10/10 09:29:01;;;;;;;1.70;0.70;;;20.30;99.90;;;;;;20581356;28;20200;-68
2021/10/10 09:39:08;;;;;;;0.30;0.27;;;20.30;99.90;;;;;;20576466;28;20227;-69
2021/10/10 09:49:27;;;;;;;0.33;0.33;;;20.10;99.90;;;;;;20584363;28;20288;-67
2021/10/10 09:59:31;;;;;;;0.30;0.27;;;20.30;99.90;;;;;;20585240;28;20806;-68
2021/10/10 10:09:36;;;;;;;0.20;0.20;;;20.30;99.90;;;;;;20585014;28;20232;-68
2021/10/10 10:19:41;;;;;;;0.63;0.43;;;21.00;99.90;;;;;;20686319;28;20625;-68
2021/10/10 10:29:49;;;;;;;0.30;0.20;;;21.30;99.90;;;;;;20726804;28;20207;-68
2021/10/10 10:39:53;;;;;;;0.77;0.40;;;21.00;99.90;;;;;;20743354;28;20319;-67
2021/10/10 10:50:04;;;;;;;0.70;0.70;;;20.90;99.90;;;;;;20742029;28;20234;-67
2021/10/10 11:00:13;;;;;;;0.33;0.03;;;20.90;99.90;;;;;;20740770;28;20221;-68
2021/10/10 11:10:18;;;;;;;3.43;2.40;;;20.80;99.90;;;;;;20738602;28;20649;-66
2021/10/10 11:20:22;;;;;;;0.20;0.13;;;20.60;99.90;;;;;;20682043;28;20223;-67
2021/10/10 11:30:31;;;;;;;0.27;0.17;;;20.30;99.90;;;;;;20647516;28;20218;-66
2021/10/10 11:40:36;;;;;;;0.77;0.70;;;20.70;99.90;;;;;;20654688;28;20230;-68
2021/10/10 11:50:40;;;;;;;1.50;0.37;;;20.80;99.90;;;;;;20633298;28;20270;-68
2021/10/10 12:00:44;;;;;;;0.63;0.53;;;21.00;99.90;;;;;;20654525;28;20688;-71
2021/10/10 12:10:50;;;;;;;0.55;0.30;;;21.20;99.90;;;;;;20653510;28;20239;-71
2021/10/10 12:21:21;;;;;;;0.30;0.30;;;22.60;99.90;;;;;;20667949;28;20250;-71
2021/10/10 12:31:26;;;;;;;0.20;0.00;;;22.40;99.90;;;;;;20572387;28;20287;-70
2021/10/10 12:41:31;;;;;;;0.47;0.25;;;23.40;99.90;;;;;;20574424;28;20263;-71
2021/10/10 12:51:36;;;;;;;0.35;0.35;;;23.40;99.90;;;;;;20590574;28;20275;-71
2021/10/10 13:01:40;;;;;;;0.28;0.22;;;25.70;99.90;;;;;;20578475;28;20233;-71
2021/10/10 13:11:51;;;;;;;0.20;0.20;;;26.10;99.90;;;;;;20636812;28;20215;-72
2021/10/10 13:21:56;;;;;;;0.60;0.60;;;26.10;99.90;;;;;;20740136;28;20567;-70
2021/10/10 13:32:01;;;;;;;0.20;0.10;;;24.80;99.90;;;;;;20750683;28;20215;-70
2021/10/10 13:42:05;;;;;;;0.20;0.10;;;22.70;99.90;;;;;;20750372;28;20194;-70
2021/10/10 13:52:11;;;;;;;0.70;0.50;;;22.20;99.90;;;;;;20747033;28;20221;-72
2021/10/10 14:02:14;;;;;;;0.20;0.10;;;22.50;99.90;;;;;;20745756;28;20350;-66
2021/10/10 14:12:20;;;;;;;0.40;0.27;;;22.10;99.90;;;;;;20747005;28;20219;-68
2021/10/10 14:22:24;;;;;;;0.67;0.67;;;22.00;99.90;;;;;;20670680;28;20624;-68
2021/10/10 14:32:29;;;;;;;0.28;0.10;;;21.70;99.90;;;;;;20664418;28;20259;-67
2021/10/10 14:42:35;;;;;;;0.30;0.10;;;21.70;99.90;;;;;;20661249;28;20367;-65
2021/10/10 14:52:41;;;;;;;2.43;0.90;;;21.30;99.90;;;;;;20616966;28;20631;-67
2021/10/10 15:02:44;;;;;;;1.50;1.00;;;21.00;99.90;;;;;;20657763;28;20227;-65
2021/10/10 15:12:49;;;;;;;0.73;0.57;;;20.80;99.90;;;;;;20658035;28;20274;-66
2021/10/10 15:22:53;;;;;;;0.47;0.20;;;21.20;99.90;;;;;;20735627;28;20230;-65
2021/10/10 15:32:58;;;;;;;0.43;0.43;;;21.00;99.90;;;;;;20737322;28;20680;-67
2021/10/10 15:43:03;;;;;;;0.37;0.37;;;21.00;99.90;;;;;;20735534;28;20278;-65
2021/10/10 15:53:08;;;;;;;0.63;0.50;;;21.50;99.90;;;;;;20733897;28;20234;-65
2021/10/10 16:03:12;;;;;;;0.83;0.50;;;21.20;99.90;;;;;;20734436;28;20223;-64
2021/10/10 16:13:17;;;;;;;0.20;0.10;;;21.10;99.90;;;;;;20732507;28;20230;-65
2021/10/10 16:23:21;;;;;;;1.17;0.67;;;21.00;99.90;;;;;;20650157;28;20199;-65
2021/10/10 16:33:27;;;;;;;0.20;0.10;;;20.40;99.90;;;;;;20651644;28;20561;-65
2021/10/10 16:43:31;;;;;;;0.30;0.30;;;20.50;99.90;;;;;;20649373;28;20196;-64
2021/10/10 16:53:37;;;;;;;0.43;0.27;;;20.20;99.90;;;;;;20664514;28;20239;-65
2021/10/10 17:03:41;;;;;;;0.40;0.40;;;20.10;99.90;;;;;;20647805;28;20245;-65
2021/10/10 17:13:49;;;;;;;0.20;0.10;;;20.00;99.90;;;;;;20632672;28;20676;-64
2021/10/10 17:23:53;;;;;;;0.30;0.20;;;19.90;99.90;;;;;;20579819;28;20539;-65
2021/10/10 17:33:58;;;;;;;0.23;0.20;;;19.90;99.90;;;;;;20600589;28;20234;-65
2021/10/10 17:44:02;;;;;;;0.30;0.30;;;19.90;99.90;;;;;;20602768;28;20235;-65
2021/10/10 17:54:07;;;;;;;1.10;0.80;;;19.80;99.90;;;;;;20569519;28;20581;-63
2021/10/10 18:04:20;;;;;;;0.30;0.30;;;19.50;99.90;;;;;;20607827;28;20828;-66
2021/10/10 18:14:26;;;;;;;0.20;0.20;;;19.30;99.90;;;;;;20626920;28;20223;-66
2021/10/10 18:24:38;;;;;;;0.40;0.40;;;19.10;99.90;;;;;;20680079;28;20201;-66
2021/10/10 18:34:43;;;;;;;0.70;0.53;;;18.80;99.90;;;;;;20656811;28;20224;-66
2021/10/10 18:44:47;;;;;;;0.20;0.20;;;18.50;99.90;;;;;;20657835;28;20203;-66
2021/10/10 18:54:51;;;;;;;0.87;0.30;;;18.30;99.90;;;;;;20657596;28;20311;-65
2021/10/10 19:04:55;;;;;;;0.30;0.30;;;18.10;99.90;;;;;;20657492;28;20313;-67
2021/10/10 19:15:00;;;;;;;0.70;0.70;;;18.10;99.90;;;;;;20670830;28;20986;-66
2021/10/10 19:25:04;;;;;;;0.87;0.77;;;18.20;99.90;;;;;;20738602;28;20236;-64
2021/10/10 19:35:12;;;;;;;0.80;0.73;;;18.20;99.90;;;;;;20735379;28;20218;-65
2021/10/10 19:45:15;;;;;;;0.50;0.50;;;18.20;99.90;;;;;;20736834;28;20207;-64
2021/10/10 19:55:21;;;;;;;1.73;1.63;;;18.30;99.90;;;;;;20733643;28;20321;-69
2021/10/10 20:05:25;;;;;;;0.20;0.10;;;18.30;99.90;;;;;;20680317;28;20759;-64
2021/10/10 20:15:30;;;;;;;0.60;0.57;;;18.30;99.90;;;;;;20672277;28;20634;-64
2021/10/10 20:25:34;;;;;;;1.53;0.43;;;18.20;99.90;;;;;;20734001;28;20196;-65
2021/10/10 20:35:40;;;;;;;0.43;0.40;;;18.10;99.90;;;;;;20707828;28;20302;-67
2021/10/10 20:45:44;;;;;;;0.80;0.73;;;17.90;99.90;;;;;;22252809;23;20760;-72
2021/10/10 20:55:49;;;;;;;0.30;0.30;;;17.70;99.90;;;;;;20651663;28;20231;-71
2021/10/10 21:05:57;;;;;;;0.60;0.60;;;17.70;99.90;;;;;;20652178;28;20309;-72
2021/10/10 21:16:04;;;;;;;0.20;0.20;;;17.70;99.90;;;;;;20672634;28;20333;-72
2021/10/10 21:26:09;;;;;;;0.60;0.60;;;17.50;99.90;;;;;;20732165;28;20199;-71
2021/10/10 21:36:15;;;;;;;0.97;0.77;;;17.40;99.90;;;;;;20738208;28;20265;-73
2021/10/10 21:46:18;;;;;;;0.20;0.13;;;17.30;99.90;;;;;;20748027;28;20714;-73
2021/10/10 21:56:24;;;;;;;1.13;0.50;;;17.20;99.90;;;;;;20746151;28;20317;-71
2021/10/10 22:06:28;;;;;;;0.40;0.30;;;17.20;99.90;;;;;;20745537;28;20203;-72
2021/10/10 22:16:34;;;;;;;0.30;0.30;;;17.30;99.90;;;;;;20717621;28;20254;-73
2021/10/10 22:26:43;;;;;;;0.47;0.40;;;17.00;99.90;;;;;;20664541;28;20263;-73
2021/10/10 22:36:48;;;;;;;0.20;0.20;;;16.90;99.90;;;;;;20621172;28;20226;-72
2021/10/10 22:46:53;;;;;;;0.77;0.40;;;16.60;99.90;;;;;;20654971;28;20231;-73
2021/10/10 22:56:58;;;;;;;0.20;0.20;;;16.30;99.90;;;;;;20663593;28;20310;-73
2021/10/10 23:07:01;;;;;;;0.20;0.10;;;16.10;99.90;;;;;;20662529;28;20215;-71
2021/10/10 23:17:06;;;;;;;0.40;0.40;;;16.10;99.90;;;;;;20693805;28;20313;-71
2021/10/10 23:27:10;;;;;;;0.20;0.20;;;16.20;99.90;;;;;;20741142;28;20293;-71
2021/10/10 23:37:15;;;;;;;0.20;0.20;;;16.30;99.90;;;;;;20741622;28;20320;-71
2021/10/10 23:47:19;;;;;;;0.20;0.20;;;16.40;99.90;;;;;;20663709;28;20254;-72
2021/10/10 23:57:24;;;;;;;0.77;0.73;;;16.30;99.90;;;;;;20659288;28;20227;-72
